sensor_id;sensor_type;location;lat;lon;timestamp;temperature;humidity
19389;DHT22;9830;41.876;23.474;2024-02-16T00:00:17;-2.70;99.90
19389;DHT22;9830;41.876;23.474;2024-02-16T00:02:44;-2.70;99.90
19389;DHT22;9830;41.876;23.474;2024-02-16T00:05:11;-2.70;99.90
19389;DHT22;9830;41.876;23.474;2024-02-16T00:07:38;-2.70;99.90
19389;DHT22;9830;41.876;23.474;2024-02-16T00:10:05;-2.60;99.90
19389;DHT22;9830;41.876;23.474;2024-02-16T00:12:32;-2.60;99.90
19389;DHT22;9830;41.876;23.474;2024-02-16T00:14:58;-2.60;99.90
19389;DHT22;9830;41.876;23.474;2024-02-16T00:17:25;-2.70;99.90
19389;DHT22;9830;41.876;23.474;2024-02-16T00:19:53;-2.80;99.90
19389;DHT22;9830;41.876;23.474;2024-02-16T00:22:19;-2.80;99.90
19389;DHT22;9830;41.876;23.474;2024-02-16T00:24:44;-2.70;99.90
19389;DHT22;9830;41.876;23.474;2024-02-16T00:27:10;-2.80;99.90
19389;DHT22;9830;41.876;23.474;2024-02-16T00:29:36;-2.80;99.90
19389;DHT22;9830;41.876;23.474;2024-02-16T00:32:04;-2.90;99.90
19389;DHT22;9830;41.876;23.474;2024-02-16T00:34:32;-2.90;99.90
19389;DHT22;9830;41.876;23.474;2024-02-16T00:36:58;-2.90;99.90
19389;DHT22;9830;41.876;23.474;2024-02-16T00:39:24;-2.90;99.90
19389;DHT22;9830;41.876;23.474;2024-02-16T00:41:50;-3.00;99.90
19389;DHT22;9830;41.876;23.474;2024-02-16T00:44:17;-3.00;99.90
19389;DHT22;9830;41.876;23.474;2024-02-16T00:46:43;-3.00;99.90
19389;DHT22;9830;41.876;23.474;2024-02-16T00:49:09;-3.00;99.90
19389;DHT22;9830;41.876;23.474;2024-02-16T00:51:39;-3.00;99.90
19389;DHT22;9830;41.876;23.474;2024-02-16T00:54:05;-3.00;99.90
19389;DHT22;9830;41.876;23.474;2024-02-16T00:56:32;-3.10;99.90
19389;DHT22;9830;41.876;23.474;2024-02-16T00:58:57;-3.10;99.90
19389;DHT22;9830;41.876;23.474;2024-02-16T01:01:23;-3.10;99.90
19389;DHT22;9830;41.876;23.474;2024-02-16T01:03:52;-3.20;99.90
19389;DHT22;9830;41.876;23.474;2024-02-16T01:06:18;-3.20;99.90
19389;DHT22;9830;41.876;23.474;2024-02-16T01:08:44;-3.20;99.90
19389;DHT22;9830;41.876;23.474;2024-02-16T01:11:09;-3.20;99.90
19389;DHT22;9830;41.876;23.474;2024-02-16T01:13:35;-3.30;99.90
19389;DHT22;9830;41.876;23.474;2024-02-16T01:16:02;-3.30;99.90
19389;DHT22;9830;41.876;23.474;2024-02-16T01:18:28;-3.40;99.90
19389;DHT22;9830;41.876;23.474;2024-02-16T01:20:54;-3.40;99.90
19389;DHT22;9830;41.876;23.474;2024-02-16T01:23:20;-3.40;99.90
19389;DHT22;9830;41.876;23.474;2024-02-16T01:25:46;-3.40;99.90
19389;DHT22;9830;41.876;23.474;2024-02-16T01:28:12;-3.40;99.90
19389;DHT22;9830;41.876;23.474;2024-02-16T01:30:39;-3.40;99.90
19389;DHT22;9830;41.876;23.474;2024-02-16T01:33:05;-3.30;99.90
19389;DHT22;9830;41.876;23.474;2024-02-16T01:35:35;-3.30;99.90
19389;DHT22;9830;41.876;23.474;2024-02-16T01:38:01;-3.40;99.90
19389;DHT22;9830;41.876;23.474;2024-02-16T01:40:27;-3.40;99.90
19389;DHT22;9830;41.876;23.474;2024-02-16T01:42:53;-3.30;99.90
19389;DHT22;9830;41.876;23.474;2024-02-16T01:45:19;-3.40;99.90
19389;DHT22;9830;41.876;23.474;2024-02-16T01:47:47;-3.40;99.90
19389;DHT22;9830;41.876;23.474;2024-02-16T01:50:16;-3.30;99.90
19389;DHT22;9830;41.876;23.474;2024-02-16T01:52:43;-3.40;99.90
19389;DHT22;9830;41.876;23.474;2024-02-16T01:55:09;-3.40;99.90
19389;DHT22;9830;41.876;23.474;2024-02-16T01:57:36;-3.50;99.90
19389;DHT22;9830;41.876;23.474;2024-02-16T02:00:02;-3.60;99.90
19389;DHT22;9830;41.876;23.474;2024-02-16T02:02:28;-3.70;99.90
19389;DHT22;9830;41.876;23.474;2024-02-16T02:04:54;-3.60;99.90
19389;DHT22;9830;41.876;23.474;2024-02-16T02:07:25;-3.60;99.90
19389;DHT22;9830;41.876;23.474;2024-02-16T02:09:52;-3.50;99.90
19389;DHT22;9830;41.876;23.474;2024-02-16T02:12:19;-3.60;99.90
19389;DHT22;9830;41.876;23.474;2024-02-16T02:14:44;-3.70;99.90
19389;DHT22;9830;41.876;23.474;2024-02-16T02:17:12;-3.70;99.90
19389;DHT22;9830;41.876;23.474;2024-02-16T02:19:38;-3.70;99.90
19389;DHT22;9830;41.876;23.474;2024-02-16T02:22:04;-3.70;99.90
19389;DHT22;9830;41.876;23.474;2024-02-16T02:24:30;-3.70;99.90
19389;DHT22;9830;41.876;23.474;2024-02-16T02:26:56;-3.70;99.90
19389;DHT22;9830;41.876;23.474;2024-02-16T02:29:23;-3.70;99.90
19389;DHT22;9830;41.876;23.474;2024-02-16T02:31:48;-3.70;99.90
19389;DHT22;9830;41.876;23.474;2024-02-16T02:34:14;-3.70;99.90
19389;DHT22;9830;41.876;23.474;2024-02-16T02:36:40;-3.70;99.90
19389;DHT22;9830;41.876;23.474;2024-02-16T02:39:06;-3.70;99.90
19389;DHT22;9830;41.876;23.474;2024-02-16T02:41:32;-3.70;99.90
19389;DHT22;9830;41.876;23.474;2024-02-16T02:43:58;-3.70;99.90
19389;DHT22;9830;41.876;23.474;2024-02-16T02:46:23;-3.70;99.90
19389;DHT22;9830;41.876;23.474;2024-02-16T02:48:50;-3.80;99.90
19389;DHT22;9830;41.876;23.474;2024-02-16T02:51:17;-3.80;99.90
19389;DHT22;9830;41.876;23.474;2024-02-16T02:53:42;-3.90;99.90
19389;DHT22;9830;41.876;23.474;2024-02-16T02:56:09;-3.90;99.90
19389;DHT22;9830;41.876;23.474;2024-02-16T02:58:34;-3.90;99.90
19389;DHT22;9830;41.876;23.474;2024-02-16T03:01:00;-4.00;99.90
19389;DHT22;9830;41.876;23.474;2024-02-16T03:03:26;-4.00;99.90
19389;DHT22;9830;41.876;23.474;2024-02-16T03:05:51;-4.00;99.90
19389;DHT22;9830;41.876;23.474;2024-02-16T03:08:17;-4.00;99.90
19389;DHT22;9830;41.876;23.474;2024-02-16T03:10:43;-4.00;99.90
19389;DHT22;9830;41.876;23.474;2024-02-16T03:13:09;-4.00;99.90
19389;DHT22;9830;41.876;23.474;2024-02-16T03:15:38;-4.00;99.90
19389;DHT22;9830;41.876;23.474;2024-02-16T03:18:05;-4.00;99.90
19389;DHT22;9830;41.876;23.474;2024-02-16T03:20:34;-4.10;99.90
19389;DHT22;9830;41.876;23.474;2024-02-16T03:23:01;-4.20;99.90
19389;DHT22;9830;41.876;23.474;2024-02-16T03:25:26;-4.20;99.90
19389;DHT22;9830;41.876;23.474;2024-02-16T03:27:52;-4.10;99.90
19389;DHT22;9830;41.876;23.474;2024-02-16T03:30:21;-4.10;99.90
19389;DHT22;9830;41.876;23.474;2024-02-16T03:32:50;-4.10;99.90
19389;DHT22;9830;41.876;23.474;2024-02-16T03:35:16;-4.10;99.90
19389;DHT22;9830;41.876;23.474;2024-02-16T03:37:42;-4.20;99.90
19389;DHT22;9830;41.876;23.474;2024-02-16T03:40:08;-4.20;99.90
19389;DHT22;9830;41.876;23.474;2024-02-16T03:42:35;-4.20;99.90
19389;DHT22;9830;41.876;23.474;2024-02-16T03:45:02;-4.20;99.90
19389;DHT22;9830;41.876;23.474;2024-02-16T03:47:28;-4.10;99.90
19389;DHT22;9830;41.876;23.474;2024-02-16T03:49:54;-4.20;99.90
19389;DHT22;9830;41.876;23.474;2024-02-16T03:52:19;-4.20;99.90
19389;DHT22;9830;41.876;23.474;2024-02-16T03:54:45;-4.20;99.90
19389;DHT22;9830;41.876;23.474;2024-02-16T03:57:14;-4.30;99.90
19389;DHT22;9830;41.876;23.474;2024-02-16T03:59:45;-4.30;99.90
19389;DHT22;9830;41.876;23.474;2024-02-16T04:02:12;-4.30;99.90
19389;DHT22;9830;41.876;23.474;2024-02-16T04:04:41;-4.30;99.90
19389;DHT22;9830;41.876;23.474;2024-02-16T04:07:07;-4.30;99.90
19389;DHT22;9830;41.876;23.474;2024-02-16T04:09:34;-4.30;99.90
19389;DHT22;9830;41.876;23.474;2024-02-16T04:12:00;-4.30;99.90
19389;DHT22;9830;41.876;23.474;2024-02-16T04:14:26;-4.30;99.90
19389;DHT22;9830;41.876;23.474;2024-02-16T04:16:52;-4.30;99.90
19389;DHT22;9830;41.876;23.474;2024-02-16T04:19:18;-4.30;99.90
19389;DHT22;9830;41.876;23.474;2024-02-16T04:21:44;-4.30;99.90
19389;DHT22;9830;41.876;23.474;2024-02-16T04:24:09;-4.30;99.90
19389;DHT22;9830;41.876;23.474;2024-02-16T04:26:35;-4.20;99.90
19389;DHT22;9830;41.876;23.474;2024-02-16T04:29:02;-4.20;99.90
19389;DHT22;9830;41.876;23.474;2024-02-16T04:31:29;-4.20;99.90
19389;DHT22;9830;41.876;23.474;2024-02-16T04:33:55;-4.30;99.90
19389;DHT22;9830;41.876;23.474;2024-02-16T04:36:21;-4.20;99.90
19389;DHT22;9830;41.876;23.474;2024-02-16T04:38:47;-4.20;99.90
19389;DHT22;9830;41.876;23.474;2024-02-16T04:41:12;-4.20;99.90
19389;DHT22;9830;41.876;23.474;2024-02-16T04:43:38;-4.20;99.90
19389;DHT22;9830;41.876;23.474;2024-02-16T04:46:04;-4.30;99.90
19389;DHT22;9830;41.876;23.474;2024-02-16T04:48:30;-4.30;99.90
19389;DHT22;9830;41.876;23.474;2024-02-16T04:50:57;-4.30;99.90
19389;DHT22;9830;41.876;23.474;2024-02-16T04:53:23;-4.40;99.90
19389;DHT22;9830;41.876;23.474;2024-02-16T04:55:49;-4.40;99.90
19389;DHT22;9830;41.876;23.474;2024-02-16T04:58:15;-4.40;99.90
19389;DHT22;9830;41.876;23.474;2024-02-16T05:00:40;-4.30;99.90
19389;DHT22;9830;41.876;23.474;2024-02-16T05:03:06;-4.40;99.90
19389;DHT22;9830;41.876;23.474;2024-02-16T05:05:32;-4.40;99.90
19389;DHT22;9830;41.876;23.474;2024-02-16T05:07:58;-4.40;99.90
19389;DHT22;9830;41.876;23.474;2024-02-16T05:10:23;-4.40;99.90
19389;DHT22;9830;41.876;23.474;2024-02-16T05:12:49;-4.40;99.90
19389;DHT22;9830;41.876;23.474;2024-02-16T05:15:15;-4.50;99.90
19389;DHT22;9830;41.876;23.474;2024-02-16T05:17:41;-4.50;99.90
19389;DHT22;9830;41.876;23.474;2024-02-16T05:20:11;-4.50;99.90
19389;DHT22;9830;41.876;23.474;2024-02-16T05:22:44;-4.50;99.90
19389;DHT22;9830;41.876;23.474;2024-02-16T05:25:12;-4.60;99.90
19389;DHT22;9830;41.876;23.474;2024-02-16T05:27:37;-4.50;99.90
19389;DHT22;9830;41.876;23.474;2024-02-16T05:30:08;-4.50;99.90
19389;DHT22;9830;41.876;23.474;2024-02-16T05:32:35;-4.50;99.90
19389;DHT22;9830;41.876;23.474;2024-02-16T05:35:06;-4.40;99.90
19389;DHT22;9830;41.876;23.474;2024-02-16T05:37:40;-4.30;99.90
19389;DHT22;9830;41.876;23.474;2024-02-16T05:40:09;-4.00;99.90
19389;DHT22;9830;41.876;23.474;2024-02-16T05:42:47;-3.60;99.90
19389;DHT22;9830;41.876;23.474;2024-02-16T05:45:13;-2.60;99.90
19389;DHT22;9830;41.876;23.474;2024-02-16T05:47:39;-2.00;99.90
19389;DHT22;9830;41.876;23.474;2024-02-16T05:50:05;-1.40;99.90
19389;DHT22;9830;41.876;23.474;2024-02-16T05:52:32;-0.70;99.90
19389;DHT22;9830;41.876;23.474;2024-02-16T05:54:57;-0.20;99.90
19389;DHT22;9830;41.876;23.474;2024-02-16T05:57:23;0.40;99.90
19389;DHT22;9830;41.876;23.474;2024-02-16T05:59:50;1.10;99.90
19389;DHT22;9830;41.876;23.474;2024-02-16T06:02:17;1.20;99.90
19389;DHT22;9830;41.876;23.474;2024-02-16T06:04:43;1.00;99.90
19389;DHT22;9830;41.876;23.474;2024-02-16T06:07:09;0.60;99.90
19389;DHT22;9830;41.876;23.474;2024-02-16T06:09:36;1.30;99.90
19389;DHT22;9830;41.876;23.474;2024-02-16T06:12:06;1.70;99.90
19389;DHT22;9830;41.876;23.474;2024-02-16T06:14:33;2.70;99.90
19389;DHT22;9830;41.876;23.474;2024-02-16T06:16:59;2.30;99.90
19389;DHT22;9830;41.876;23.474;2024-02-16T06:19:25;3.90;99.90
19389;DHT22;9830;41.876;23.474;2024-02-16T06:21:53;4.60;99.90
19389;DHT22;9830;41.876;23.474;2024-02-16T06:24:22;3.60;99.90
19389;DHT22;9830;41.876;23.474;2024-02-16T06:26:48;3.60;99.90
19389;DHT22;9830;41.876;23.474;2024-02-16T06:29:14;2.90;99.90
19389;DHT22;9830;41.876;23.474;2024-02-16T06:31:40;2.60;99.90
19389;DHT22;9830;41.876;23.474;2024-02-16T06:34:06;2.90;99.90
19389;DHT22;9830;41.876;23.474;2024-02-16T06:36:31;3.40;99.90
19389;DHT22;9830;41.876;23.474;2024-02-16T06:38:57;4.30;99.90
19389;DHT22;9830;41.876;23.474;2024-02-16T06:41:23;5.40;99.90
19389;DHT22;9830;41.876;23.474;2024-02-16T06:43:49;5.10;99.90
19389;DHT22;9830;41.876;23.474;2024-02-16T06:46:14;5.10;99.90
19389;DHT22;9830;41.876;23.474;2024-02-16T06:48:40;6.40;99.90
19389;DHT22;9830;41.876;23.474;2024-02-16T06:51:06;6.50;99.90
19389;DHT22;9830;41.876;23.474;2024-02-16T06:53:32;7.60;99.90
19389;DHT22;9830;41.876;23.474;2024-02-16T06:55:58;9.00;96.80
19389;DHT22;9830;41.876;23.474;2024-02-16T06:58:24;9.50;91.40
19389;DHT22;9830;41.876;23.474;2024-02-16T07:00:50;9.50;85.40
19389;DHT22;9830;41.876;23.474;2024-02-16T07:03:15;8.70;91.20
19389;DHT22;9830;41.876;23.474;2024-02-16T07:05:41;8.00;93.60
19389;DHT22;9830;41.876;23.474;2024-02-16T07:08:07;8.90;92.60
19389;DHT22;9830;41.876;23.474;2024-02-16T07:10:33;10.00;87.60
19389;DHT22;9830;41.876;23.474;2024-02-16T07:12:59;9.80;80.20
19389;DHT22;9830;41.876;23.474;2024-02-16T07:15:25;10.20;78.80
19389;DHT22;9830;41.876;23.474;2024-02-16T07:17:53;10.10;78.70
19389;DHT22;9830;41.876;23.474;2024-02-16T07:20:19;9.40;78.30
19389;DHT22;9830;41.876;23.474;2024-02-16T07:22:45;9.50;80.20
19389;DHT22;9830;41.876;23.474;2024-02-16T07:25:17;11.80;66.80
19389;DHT22;9830;41.876;23.474;2024-02-16T07:27:43;12.70;56.20
19389;DHT22;9830;41.876;23.474;2024-02-16T07:30:09;13.00;55.70
19389;DHT22;9830;41.876;23.474;2024-02-16T07:32:36;11.70;57.60
19389;DHT22;9830;41.876;23.474;2024-02-16T07:35:02;12.30;60.40
19389;DHT22;9830;41.876;23.474;2024-02-16T07:37:28;11.20;61.30
19389;DHT22;9830;41.876;23.474;2024-02-16T07:39:54;10.20;74.60
19389;DHT22;9830;41.876;23.474;2024-02-16T07:42:20;10.30;76.60
19389;DHT22;9830;41.876;23.474;2024-02-16T07:44:46;10.50;73.00
19389;DHT22;9830;41.876;23.474;2024-02-16T07:47:11;10.00;76.10
19389;DHT22;9830;41.876;23.474;2024-02-16T07:49:41;12.00;65.10
19389;DHT22;9830;41.876;23.474;2024-02-16T07:52:06;11.40;64.60
19389;DHT22;9830;41.876;23.474;2024-02-16T07:54:32;12.00;68.60
19389;DHT22;9830;41.876;23.474;2024-02-16T07:56:58;12.30;61.70
19389;DHT22;9830;41.876;23.474;2024-02-16T07:59:25;13.30;55.50
19389;DHT22;9830;41.876;23.474;2024-02-16T08:01:51;13.90;51.80
19389;DHT22;9830;41.876;23.474;2024-02-16T08:04:17;14.30;52.00
19389;DHT22;9830;41.876;23.474;2024-02-16T08:06:42;15.00;51.70
19389;DHT22;9830;41.876;23.474;2024-02-16T08:09:08;16.00;49.40
19389;DHT22;9830;41.876;23.474;2024-02-16T08:11:34;16.10;48.00
19389;DHT22;9830;41.876;23.474;2024-02-16T08:14:00;16.90;45.60
19389;DHT22;9830;41.876;23.474;2024-02-16T08:16:29;16.30;46.80
19389;DHT22;9830;41.876;23.474;2024-02-16T08:18:55;17.00;45.00
19389;DHT22;9830;41.876;23.474;2024-02-16T08:21:20;17.00;45.50
19389;DHT22;9830;41.876;23.474;2024-02-16T08:23:46;16.50;45.60
19389;DHT22;9830;41.876;23.474;2024-02-16T08:26:13;15.80;47.50
19389;DHT22;9830;41.876;23.474;2024-02-16T08:28:38;14.50;49.70
19389;DHT22;9830;41.876;23.474;2024-02-16T08:31:05;14.30;55.30
19389;DHT22;9830;41.876;23.474;2024-02-16T08:33:30;14.90;52.70
19389;DHT22;9830;41.876;23.474;2024-02-16T08:35:57;14.60;51.80
19389;DHT22;9830;41.876;23.474;2024-02-16T08:38:22;15.80;48.50
19389;DHT22;9830;41.876;23.474;2024-02-16T08:40:48;15.50;49.00
19389;DHT22;9830;41.876;23.474;2024-02-16T08:43:17;16.10;47.80
19389;DHT22;9830;41.876;23.474;2024-02-16T08:45:43;15.20;47.20
19389;DHT22;9830;41.876;23.474;2024-02-16T08:48:08;14.50;50.60
19389;DHT22;9830;41.876;23.474;2024-02-16T08:50:34;14.70;50.50
19389;DHT22;9830;41.876;23.474;2024-02-16T08:53:00;16.80;45.00
19389;DHT22;9830;41.876;23.474;2024-02-16T08:55:26;18.30;40.40
19389;DHT22;9830;41.876;23.474;2024-02-16T08:57:52;16.80;41.10
19389;DHT22;9830;41.876;23.474;2024-02-16T09:00:18;17.60;43.20
19389;DHT22;9830;41.876;23.474;2024-02-16T09:02:44;17.90;40.20
19389;DHT22;9830;41.876;23.474;2024-02-16T09:05:11;17.40;38.20
19389;DHT22;9830;41.876;23.474;2024-02-16T09:07:37;17.60;39.30
19389;DHT22;9830;41.876;23.474;2024-02-16T09:10:02;16.70;41.00
19389;DHT22;9830;41.876;23.474;2024-02-16T09:12:29;17.50;42.20
19389;DHT22;9830;41.876;23.474;2024-02-16T09:14:55;17.80;41.00
19389;DHT22;9830;41.876;23.474;2024-02-16T09:17:21;17.50;41.20
19389;DHT22;9830;41.876;23.474;2024-02-16T09:19:46;17.90;39.40
19389;DHT22;9830;41.876;23.474;2024-02-16T09:22:12;19.00;37.50
19389;DHT22;9830;41.876;23.474;2024-02-16T09:24:38;20.50;34.60
19389;DHT22;9830;41.876;23.474;2024-02-16T09:27:04;21.20;32.30
19389;DHT22;9830;41.876;23.474;2024-02-16T09:29:30;21.40;30.60
19389;DHT22;9830;41.876;23.474;2024-02-16T09:31:56;20.30;33.40
19389;DHT22;9830;41.876;23.474;2024-02-16T09:34:22;20.10;31.80
19389;DHT22;9830;41.876;23.474;2024-02-16T09:36:47;21.00;31.60
19389;DHT22;9830;41.876;23.474;2024-02-16T09:39:13;18.00;35.20
19389;DHT22;9830;41.876;23.474;2024-02-16T09:41:42;18.90;36.10
19389;DHT22;9830;41.876;23.474;2024-02-16T09:44:11;20.50;32.60
19389;DHT22;9830;41.876;23.474;2024-02-16T09:46:37;20.60;32.30
19389;DHT22;9830;41.876;23.474;2024-02-16T09:49:03;20.30;32.40
19389;DHT22;9830;41.876;23.474;2024-02-16T09:51:30;20.20;32.60
19389;DHT22;9830;41.876;23.474;2024-02-16T09:53:56;20.90;32.00
19389;DHT22;9830;41.876;23.474;2024-02-16T09:56:22;21.30;30.80
19389;DHT22;9830;41.876;23.474;2024-02-16T09:58:47;21.10;31.70
19389;DHT22;9830;41.876;23.474;2024-02-16T10:01:20;18.90;33.30
19389;DHT22;9830;41.876;23.474;2024-02-16T10:03:51;19.20;35.10
19389;DHT22;9830;41.876;23.474;2024-02-16T10:06:17;21.00;31.50
19389;DHT22;9830;41.876;23.474;2024-02-16T10:08:52;20.20;32.60
19389;DHT22;9830;41.876;23.474;2024-02-16T10:11:22;20.20;33.70
19389;DHT22;9830;41.876;23.474;2024-02-16T10:14:04;19.80;32.30
19389;DHT22;9830;41.876;23.474;2024-02-16T10:16:30;19.30;33.40
19389;DHT22;9830;41.876;23.474;2024-02-16T10:19:06;19.40;33.90
19389;DHT22;9830;41.876;23.474;2024-02-16T10:21:33;19.80;34.00
19389;DHT22;9830;41.876;23.474;2024-02-16T10:24:05;19.40;33.20
19389;DHT22;9830;41.876;23.474;2024-02-16T10:26:36;19.80;34.00
19389;DHT22;9830;41.876;23.474;2024-02-16T10:29:04;20.30;33.20
19389;DHT22;9830;41.876;23.474;2024-02-16T10:31:31;20.00;32.00
19389;DHT22;9830;41.876;23.474;2024-02-16T10:34:02;20.20;33.30
19389;DHT22;9830;41.876;23.474;2024-02-16T10:36:32;20.00;33.60
19389;DHT22;9830;41.876;23.474;2024-02-16T10:38:58;20.30;32.90
19389;DHT22;9830;41.876;23.474;2024-02-16T10:41:27;20.50;34.00
19389;DHT22;9830;41.876;23.474;2024-02-16T10:43:58;20.20;33.40
19389;DHT22;9830;41.876;23.474;2024-02-16T10:46:24;20.50;33.30
19389;DHT22;9830;41.876;23.474;2024-02-16T10:48:50;21.00;33.90
19389;DHT22;9830;41.876;23.474;2024-02-16T10:51:23;21.00;33.70
19389;DHT22;9830;41.876;23.474;2024-02-16T10:53:52;21.10;34.50
19389;DHT22;9830;41.876;23.474;2024-02-16T10:56:27;21.40;32.70
19389;DHT22;9830;41.876;23.474;2024-02-16T10:58:54;20.50;32.60
19389;DHT22;9830;41.876;23.474;2024-02-16T11:01:19;20.70;33.40
19389;DHT22;9830;41.876;23.474;2024-02-16T11:03:45;20.40;34.00
19389;DHT22;9830;41.876;23.474;2024-02-16T11:06:15;19.10;36.00
19389;DHT22;9830;41.876;23.474;2024-02-16T11:08:42;19.20;37.20
19389;DHT22;9830;41.876;23.474;2024-02-16T11:11:08;18.90;37.00
19389;DHT22;9830;41.876;23.474;2024-02-16T11:13:37;18.30;38.20
19389;DHT22;9830;41.876;23.474;2024-02-16T11:16:09;17.80;40.80
19389;DHT22;9830;41.876;23.474;2024-02-16T11:18:39;16.80;43.50
19389;DHT22;9830;41.876;23.474;2024-02-16T11:21:05;16.40;45.20
19389;DHT22;9830;41.876;23.474;2024-02-16T11:23:35;15.80;45.90
19389;DHT22;9830;41.876;23.474;2024-02-16T11:26:05;15.70;48.90
19389;DHT22;9830;41.876;23.474;2024-02-16T11:28:35;15.40;47.80
19389;DHT22;9830;41.876;23.474;2024-02-16T11:31:01;15.20;51.50
19389;DHT22;9830;41.876;23.474;2024-02-16T11:33:28;15.20;51.80
19389;DHT22;9830;41.876;23.474;2024-02-16T11:36:04;14.80;51.60
19389;DHT22;9830;41.876;23.474;2024-02-16T11:38:31;14.60;56.80
19389;DHT22;9830;41.876;23.474;2024-02-16T11:41:06;14.50;57.70
19389;DHT22;9830;41.876;23.474;2024-02-16T11:43:35;14.40;60.80
19389;DHT22;9830;41.876;23.474;2024-02-16T11:46:14;14.20;56.90
19389;DHT22;9830;41.876;23.474;2024-02-16T11:48:41;14.00;60.70
19389;DHT22;9830;41.876;23.474;2024-02-16T11:51:07;14.10;58.00
19389;DHT22;9830;41.876;23.474;2024-02-16T11:53:33;14.00;60.50
19389;DHT22;9830;41.876;23.474;2024-02-16T11:55:59;14.00;61.40
19389;DHT22;9830;41.876;23.474;2024-02-16T11:58:25;13.90;61.20
19389;DHT22;9830;41.876;23.474;2024-02-16T12:00:51;14.00;64.40
19389;DHT22;9830;41.876;23.474;2024-02-16T12:03:24;14.10;62.20
19389;DHT22;9830;41.876;23.474;2024-02-16T12:05:55;13.90;58.50
19389;DHT22;9830;41.876;23.474;2024-02-16T12:08:22;13.80;63.50
19389;DHT22;9830;41.876;23.474;2024-02-16T12:10:48;13.90;59.90
19389;DHT22;9830;41.876;23.474;2024-02-16T12:13:16;14.00;61.90
19389;DHT22;9830;41.876;23.474;2024-02-16T12:15:47;13.80;58.10
19389;DHT22;9830;41.876;23.474;2024-02-16T12:18:24;13.80;59.20
19389;DHT22;9830;41.876;23.474;2024-02-16T12:21:05;13.80;62.20
19389;DHT22;9830;41.876;23.474;2024-02-16T12:23:32;13.60;63.80
19389;DHT22;9830;41.876;23.474;2024-02-16T12:26:03;13.80;59.10
19389;DHT22;9830;41.876;23.474;2024-02-16T12:28:30;14.00;60.30
19389;DHT22;9830;41.876;23.474;2024-02-16T12:30:59;13.90;59.90
19389;DHT22;9830;41.876;23.474;2024-02-16T12:33:26;14.10;59.60
19389;DHT22;9830;41.876;23.474;2024-02-16T12:35:52;14.00;58.00
19389;DHT22;9830;41.876;23.474;2024-02-16T12:38:18;13.90;56.30
19389;DHT22;9830;41.876;23.474;2024-02-16T12:40:48;13.70;58.40
19389;DHT22;9830;41.876;23.474;2024-02-16T12:43:14;13.80;57.00
19389;DHT22;9830;41.876;23.474;2024-02-16T12:45:40;13.60;57.60
19389;DHT22;9830;41.876;23.474;2024-02-16T12:48:06;13.50;59.70
19389;DHT22;9830;41.876;23.474;2024-02-16T12:50:32;13.50;57.40
19389;DHT22;9830;41.876;23.474;2024-02-16T12:52:58;13.40;58.80
19389;DHT22;9830;41.876;23.474;2024-02-16T12:55:27;13.50;58.80
19389;DHT22;9830;41.876;23.474;2024-02-16T12:57:53;13.60;61.40
19389;DHT22;9830;41.876;23.474;2024-02-16T13:00:19;13.40;57.70
19389;DHT22;9830;41.876;23.474;2024-02-16T13:02:45;13.30;58.80
19389;DHT22;9830;41.876;23.474;2024-02-16T13:05:10;13.20;58.70
19389;DHT22;9830;41.876;23.474;2024-02-16T13:07:37;13.20;57.80
19389;DHT22;9830;41.876;23.474;2024-02-16T13:10:05;13.00;59.20
19389;DHT22;9830;41.876;23.474;2024-02-16T13:12:31;13.10;56.60
19389;DHT22;9830;41.876;23.474;2024-02-16T13:14:57;13.10;59.00
19389;DHT22;9830;41.876;23.474;2024-02-16T13:17:23;13.00;60.70
19389;DHT22;9830;41.876;23.474;2024-02-16T13:19:49;13.00;62.60
19389;DHT22;9830;41.876;23.474;2024-02-16T13:22:14;13.10;59.70
19389;DHT22;9830;41.876;23.474;2024-02-16T13:24:40;13.00;58.70
19389;DHT22;9830;41.876;23.474;2024-02-16T13:27:07;12.80;58.70
19389;DHT22;9830;41.876;23.474;2024-02-16T13:29:32;12.70;58.50
19389;DHT22;9830;41.876;23.474;2024-02-16T13:31:59;12.70;59.10
19389;DHT22;9830;41.876;23.474;2024-02-16T13:34:25;12.70;59.40
19389;DHT22;9830;41.876;23.474;2024-02-16T13:36:52;12.70;60.50
19389;DHT22;9830;41.876;23.474;2024-02-16T13:39:18;12.70;59.90
19389;DHT22;9830;41.876;23.474;2024-02-16T13:41:45;12.70;58.00
19389;DHT22;9830;41.876;23.474;2024-02-16T13:44:12;12.70;57.50
19389;DHT22;9830;41.876;23.474;2024-02-16T13:46:38;12.70;57.60
19389;DHT22;9830;41.876;23.474;2024-02-16T13:49:04;12.60;58.80
19389;DHT22;9830;41.876;23.474;2024-02-16T13:51:30;12.60;57.80
19389;DHT22;9830;41.876;23.474;2024-02-16T13:53:55;12.50;62.70
19389;DHT22;9830;41.876;23.474;2024-02-16T13:56:21;12.50;60.70
19389;DHT22;9830;41.876;23.474;2024-02-16T13:58:46;12.50;61.20
19389;DHT22;9830;41.876;23.474;2024-02-16T14:01:13;12.40;59.30
19389;DHT22;9830;41.876;23.474;2024-02-16T14:03:39;12.40;62.50
19389;DHT22;9830;41.876;23.474;2024-02-16T14:06:06;12.60;62.10
19389;DHT22;9830;41.876;23.474;2024-02-16T14:08:33;12.50;61.90
19389;DHT22;9830;41.876;23.474;2024-02-16T14:10:58;12.40;62.10
19389;DHT22;9830;41.876;23.474;2024-02-16T14:13:24;12.40;62.20
19389;DHT22;9830;41.876;23.474;2024-02-16T14:15:50;12.30;62.20
19389;DHT22;9830;41.876;23.474;2024-02-16T14:18:16;12.30;67.00
19389;DHT22;9830;41.876;23.474;2024-02-16T14:20:42;12.20;68.30
19389;DHT22;9830;41.876;23.474;2024-02-16T14:23:07;12.10;67.30
19389;DHT22;9830;41.876;23.474;2024-02-16T14:25:35;12.00;68.60
19389;DHT22;9830;41.876;23.474;2024-02-16T14:28:03;11.90;68.30
19389;DHT22;9830;41.876;23.474;2024-02-16T14:30:29;11.70;65.60
19389;DHT22;9830;41.876;23.474;2024-02-16T14:32:55;11.50;66.70
19389;DHT22;9830;41.876;23.474;2024-02-16T14:35:20;11.50;65.20
19389;DHT22;9830;41.876;23.474;2024-02-16T14:37:49;11.30;67.80
19389;DHT22;9830;41.876;23.474;2024-02-16T14:40:15;11.20;69.70
19389;DHT22;9830;41.876;23.474;2024-02-16T14:42:41;11.20;71.90
19389;DHT22;9830;41.876;23.474;2024-02-16T14:45:08;11.10;72.40
19389;DHT22;9830;41.876;23.474;2024-02-16T14:47:47;10.90;72.70
19389;DHT22;9830;41.876;23.474;2024-02-16T14:50:13;10.80;75.10
19389;DHT22;9830;41.876;23.474;2024-02-16T14:52:40;10.70;76.60
19389;DHT22;9830;41.876;23.474;2024-02-16T14:55:07;10.70;76.50
19389;DHT22;9830;41.876;23.474;2024-02-16T14:57:39;10.70;79.90
19389;DHT22;9830;41.876;23.474;2024-02-16T15:00:09;10.50;80.40
19389;DHT22;9830;41.876;23.474;2024-02-16T15:02:36;10.50;81.20
19389;DHT22;9830;41.876;23.474;2024-02-16T15:05:06;10.40;81.90
19389;DHT22;9830;41.876;23.474;2024-02-16T15:07:32;10.40;84.50
19389;DHT22;9830;41.876;23.474;2024-02-16T15:09:58;10.30;84.90
19389;DHT22;9830;41.876;23.474;2024-02-16T15:12:24;10.10;85.00
19389;DHT22;9830;41.876;23.474;2024-02-16T15:14:50;9.90;88.00
19389;DHT22;9830;41.876;23.474;2024-02-16T15:17:16;9.70;90.30
19389;DHT22;9830;41.876;23.474;2024-02-16T15:19:43;9.50;92.30
19389;DHT22;9830;41.876;23.474;2024-02-16T15:22:09;9.20;93.60
19389;DHT22;9830;41.876;23.474;2024-02-16T15:24:34;9.00;95.00
19389;DHT22;9830;41.876;23.474;2024-02-16T15:27:00;8.70;95.40
19389;DHT22;9830;41.876;23.474;2024-02-16T15:29:27;8.60;97.00